sensor_id;sensor_type;location;lat;lon;timestamp;temperature;humidity
429;DHT22;201;48.758;9.290;2023-10-13T00:01:22;18.40;1.00
429;DHT22;201;48.758;9.290;2023-10-13T00:03:48;18.40;1.00
429;DHT22;201;48.758;9.290;2023-10-13T00:06:14;18.40;1.00
429;DHT22;201;48.758;9.290;2023-10-13T00:08:41;18.40;1.00
429;DHT22;201;48.758;9.290;2023-10-13T00:11:11;18.40;1.00
429;DHT22;201;48.758;9.290;2023-10-13T00:13:36;18.40;1.00
429;DHT22;201;48.758;9.290;2023-10-13T00:16:28;18.30;1.00
429;DHT22;201;48.758;9.290;2023-10-13T00:18:54;18.30;1.00
429;DHT22;201;48.758;9.290;2023-10-13T00:21:23;18.20;1.00
429;DHT22;201;48.758;9.290;2023-10-13T00:24:01;18.10;1.00
429;DHT22;201;48.758;9.290;2023-10-13T00:26:29;18.10;1.00
429;DHT22;201;48.758;9.290;2023-10-13T00:28:56;18.10;1.00
429;DHT22;201;48.758;9.290;2023-10-13T00:31:26;18.00;1.00
429;DHT22;201;48.758;9.290;2023-10-13T00:33:58;18.00;1.00
429;DHT22;201;48.758;9.290;2023-10-13T00:36:26;17.90;1.00
429;DHT22;201;48.758;9.290;2023-10-13T00:38:52;17.70;1.00
429;DHT22;201;48.758;9.290;2023-10-13T00:41:18;17.70;1.00
429;DHT22;201;48.758;9.290;2023-10-13T00:43:58;17.60;1.00
429;DHT22;201;48.758;9.290;2023-10-13T00:46:34;17.50;1.00
429;DHT22;201;48.758;9.290;2023-10-13T00:49:03;17.50;1.00
429;DHT22;201;48.758;9.290;2023-10-13T00:51:35;17.50;1.00
429;DHT22;201;48.758;9.290;2023-10-13T00:54:05;17.40;1.00
429;DHT22;201;48.758;9.290;2023-10-13T00:56:41;17.30;1.00
429;DHT22;201;48.758;9.290;2023-10-13T00:59:17;17.20;1.00
429;DHT22;201;48.758;9.290;2023-10-13T01:01:45;17.10;1.00
429;DHT22;201;48.758;9.290;2023-10-13T01:04:11;17.10;1.00
429;DHT22;201;48.758;9.290;2023-10-13T01:06:39;17.00;1.00
429;DHT22;201;48.758;9.290;2023-10-13T01:09:06;16.90;1.00
429;DHT22;201;48.758;9.290;2023-10-13T01:11:48;16.90;1.00
429;DHT22;201;48.758;9.290;2023-10-13T01:14:18;16.80;1.00
429;DHT22;201;48.758;9.290;2023-10-13T01:16:48;16.80;1.00
429;DHT22;201;48.758;9.290;2023-10-13T01:19:18;16.80;1.00
429;DHT22;201;48.758;9.290;2023-10-13T01:21:48;16.70;1.00
429;DHT22;201;48.758;9.290;2023-10-13T01:24:14;16.70;1.00
429;DHT22;201;48.758;9.290;2023-10-13T01:26:40;16.60;1.00
429;DHT22;201;48.758;9.290;2023-10-13T01:29:08;16.60;1.00
429;DHT22;201;48.758;9.290;2023-10-13T01:31:44;16.70;1.00
429;DHT22;201;48.758;9.290;2023-10-13T01:34:17;16.70;1.00
429;DHT22;201;48.758;9.290;2023-10-13T01:36:55;16.70;1.00
429;DHT22;201;48.758;9.290;2023-10-13T01:39:22;16.70;1.00
429;DHT22;201;48.758;9.290;2023-10-13T01:41:52;16.70;1.00
429;DHT22;201;48.758;9.290;2023-10-13T01:44:24;16.70;1.00
429;DHT22;201;48.758;9.290;2023-10-13T01:46:56;16.70;1.00
429;DHT22;201;48.758;9.290;2023-10-13T01:49:24;16.70;1.00
429;DHT22;201;48.758;9.290;2023-10-13T01:51:51;16.70;1.00
429;DHT22;201;48.758;9.290;2023-10-13T01:54:17;16.70;1.00
429;DHT22;201;48.758;9.290;2023-10-13T01:56:43;16.70;1.00
429;DHT22;201;48.758;9.290;2023-10-13T01:59:12;16.60;1.00
429;DHT22;201;48.758;9.290;2023-10-13T02:01:39;16.60;1.00
429;DHT22;201;48.758;9.290;2023-10-13T02:04:05;16.50;1.00
429;DHT22;201;48.758;9.290;2023-10-13T02:06:33;16.50;1.00
429;DHT22;201;48.758;9.290;2023-10-13T02:09:04;16.50;1.00
429;DHT22;201;48.758;9.290;2023-10-13T02:11:42;16.50;1.00
429;DHT22;201;48.758;9.290;2023-10-13T02:14:11;16.60;1.00
429;DHT22;201;48.758;9.290;2023-10-13T02:16:37;16.50;1.00
429;DHT22;201;48.758;9.290;2023-10-13T02:19:03;16.60;1.00
429;DHT22;201;48.758;9.290;2023-10-13T02:21:34;16.60;1.00
429;DHT22;201;48.758;9.290;2023-10-13T02:24:06;16.60;1.00
429;DHT22;201;48.758;9.290;2023-10-13T02:26:38;16.60;1.00
429;DHT22;201;48.758;9.290;2023-10-13T02:29:07;16.60;1.00
429;DHT22;201;48.758;9.290;2023-10-13T02:31:39;16.60;1.00
429;DHT22;201;48.758;9.290;2023-10-13T02:34:05;16.70;1.00
429;DHT22;201;48.758;9.290;2023-10-13T02:36:40;16.70;1.00
429;DHT22;201;48.758;9.290;2023-10-13T02:39:16;16.60;1.00
429;DHT22;201;48.758;9.290;2023-10-13T02:41:42;16.60;1.00
429;DHT22;201;48.758;9.290;2023-10-13T02:44:14;16.50;1.00
429;DHT22;201;48.758;9.290;2023-10-13T02:46:52;16.40;1.00
429;DHT22;201;48.758;9.290;2023-10-13T02:49:24;16.30;1.00
429;DHT22;201;48.758;9.290;2023-10-13T02:51:52;16.30;1.00
429;DHT22;201;48.758;9.290;2023-10-13T02:54:18;16.20;1.00
429;DHT22;201;48.758;9.290;2023-10-13T02:56:45;16.20;1.00
429;DHT22;201;48.758;9.290;2023-10-13T02:59:15;16.20;1.00
429;DHT22;201;48.758;9.290;2023-10-13T03:01:40;16.10;1.00
429;DHT22;201;48.758;9.290;2023-10-13T03:04:06;16.10;1.00
429;DHT22;201;48.758;9.290;2023-10-13T03:06:35;16.10;1.00
429;DHT22;201;48.758;9.290;2023-10-13T03:09:03;16.10;1.00
429;DHT22;201;48.758;9.290;2023-10-13T03:11:45;16.20;1.00
429;DHT22;201;48.758;9.290;2023-10-13T03:14:21;16.10;1.00
429;DHT22;201;48.758;9.290;2023-10-13T03:16:58;16.10;1.00
429;DHT22;201;48.758;9.290;2023-10-13T03:19:32;16.10;1.00
429;DHT22;201;48.758;9.290;2023-10-13T03:21:59;16.10;1.00
429;DHT22;201;48.758;9.290;2023-10-13T03:24:34;16.00;1.00
429;DHT22;201;48.758;9.290;2023-10-13T03:27:03;16.00;1.00
429;DHT22;201;48.758;9.290;2023-10-13T03:29:38;15.90;1.00
429;DHT22;201;48.758;9.290;2023-10-13T03:32:15;15.90;1.00
429;DHT22;201;48.758;9.290;2023-10-13T03:34:45;15.90;1.00
429;DHT22;201;48.758;9.290;2023-10-13T03:37:18;15.90;1.00
429;DHT22;201;48.758;9.290;2023-10-13T03:39:45;15.80;1.00
429;DHT22;201;48.758;9.290;2023-10-13T03:42:11;15.80;1.00
429;DHT22;201;48.758;9.290;2023-10-13T03:44:47;15.80;1.00
429;DHT22;201;48.758;9.290;2023-10-13T03:47:13;15.80;1.00
429;DHT22;201;48.758;9.290;2023-10-13T03:49:54;15.70;1.00
429;DHT22;201;48.758;9.290;2023-10-13T03:52:40;15.70;1.00
429;DHT22;201;48.758;9.290;2023-10-13T03:55:06;15.50;1.00
429;DHT22;201;48.758;9.290;2023-10-13T03:57:32;15.50;1.00
429;DHT22;201;48.758;9.290;2023-10-13T04:00:04;15.50;1.00
429;DHT22;201;48.758;9.290;2023-10-13T04:02:47;15.50;1.00
429;DHT22;201;48.758;9.290;2023-10-13T04:05:18;15.40;1.00
429;DHT22;201;48.758;9.290;2023-10-13T04:08:06;15.30;1.00
429;DHT22;201;48.758;9.290;2023-10-13T04:10:55;15.20;1.00
429;DHT22;201;48.758;9.290;2023-10-13T04:13:22;15.20;1.00
429;DHT22;201;48.758;9.290;2023-10-13T04:16:08;15.20;1.00
429;DHT22;201;48.758;9.290;2023-10-13T04:18:40;15.20;1.00
429;DHT22;201;48.758;9.290;2023-10-13T04:21:24;15.10;1.00
429;DHT22;201;48.758;9.290;2023-10-13T04:24:09;15.10;1.00
429;DHT22;201;48.758;9.290;2023-10-13T04:26:51;15.10;1.00
429;DHT22;201;48.758;9.290;2023-10-13T04:29:35;15.10;1.00
429;DHT22;201;48.758;9.290;2023-10-13T04:32:19;15.10;1.00
429;DHT22;201;48.758;9.290;2023-10-13T04:34:58;15.10;1.00
429;DHT22;201;48.758;9.290;2023-10-13T04:37:35;15.10;1.00
429;DHT22;201;48.758;9.290;2023-10-13T04:40:14;15.10;1.00
429;DHT22;201;48.758;9.290;2023-10-13T04:42:42;15.00;1.00
429;DHT22;201;48.758;9.290;2023-10-13T04:45:24;15.00;1.00
429;DHT22;201;48.758;9.290;2023-10-13T04:47:55;14.80;1.00
429;DHT22;201;48.758;9.290;2023-10-13T04:50:46;14.60;1.00
429;DHT22;201;48.758;9.290;2023-10-13T04:53:17;14.50;1.00
429;DHT22;201;48.758;9.290;2023-10-13T04:55:59;14.30;1.00
429;DHT22;201;48.758;9.290;2023-10-13T04:58:25;14.20;1.00
429;DHT22;201;48.758;9.290;2023-10-13T05:01:13;14.10;1.00
429;DHT22;201;48.758;9.290;2023-10-13T05:03:51;14.10;1.00
429;DHT22;201;48.758;9.290;2023-10-13T05:06:35;14.00;1.00
429;DHT22;201;48.758;9.290;2023-10-13T05:09:13;14.00;1.00
429;DHT22;201;48.758;9.290;2023-10-13T05:11:57;14.00;1.00
429;DHT22;201;48.758;9.290;2023-10-13T05:14:42;14.00;1.00
429;DHT22;201;48.758;9.290;2023-10-13T05:17:26;14.00;1.00
429;DHT22;201;48.758;9.290;2023-10-13T05:20:10;13.90;1.00
429;DHT22;201;48.758;9.290;2023-10-13T05:22:54;14.00;1.00
429;DHT22;201;48.758;9.290;2023-10-13T05:25:39;14.10;1.00
429;DHT22;201;48.758;9.290;2023-10-13T05:28:23;14.20;1.00
429;DHT22;201;48.758;9.290;2023-10-13T05:31:08;14.20;1.00
429;DHT22;201;48.758;9.290;2023-10-13T05:33:52;14.20;1.00
429;DHT22;201;48.758;9.290;2023-10-13T05:36:36;14.20;1.00
429;DHT22;201;48.758;9.290;2023-10-13T05:39:21;14.20;1.00
429;DHT22;201;48.758;9.290;2023-10-13T05:42:05;14.20;1.00
429;DHT22;201;48.758;9.290;2023-10-13T05:44:50;14.10;1.00
429;DHT22;201;48.758;9.290;2023-10-13T05:47:33;14.10;1.00
429;DHT22;201;48.758;9.290;2023-10-13T05:50:11;14.10;1.00
429;DHT22;201;48.758;9.290;2023-10-13T05:52:47;14.10;1.00
429;DHT22;201;48.758;9.290;2023-10-13T05:55:29;14.10;1.00
429;DHT22;201;48.758;9.290;2023-10-13T05:58:13;14.10;1.00
429;DHT22;201;48.758;9.290;2023-10-13T06:00:58;14.10;1.00
429;DHT22;201;48.758;9.290;2023-10-13T06:03:42;14.10;1.00
429;DHT22;201;48.758;9.290;2023-10-13T06:06:26;14.10;1.00
429;DHT22;201;48.758;9.290;2023-10-13T06:09:10;14.20;1.00
429;DHT22;201;48.758;9.290;2023-10-13T06:11:54;14.40;1.00
429;DHT22;201;48.758;9.290;2023-10-13T06:14:38;14.60;1.00
429;DHT22;201;48.758;9.290;2023-10-13T06:17:23;14.80;1.00
429;DHT22;201;48.758;9.290;2023-10-13T06:20:07;15.00;1.00
429;DHT22;201;48.758;9.290;2023-10-13T06:22:51;15.30;1.00
429;DHT22;201;48.758;9.290;2023-10-13T06:25:35;15.50;1.00
429;DHT22;201;48.758;9.290;2023-10-13T06:28:19;15.70;1.00
429;DHT22;201;48.758;9.290;2023-10-13T06:31:05;16.00;1.00
429;DHT22;201;48.758;9.290;2023-10-13T06:33:34;16.20;1.00
429;DHT22;201;48.758;9.290;2023-10-13T06:36:01;16.20;1.00
429;DHT22;201;48.758;9.290;2023-10-13T06:38:27;16.40;1.00
429;DHT22;201;48.758;9.290;2023-10-13T06:40:57;16.50;1.00
429;DHT22;201;48.758;9.290;2023-10-13T06:43:22;16.60;1.00
429;DHT22;201;48.758;9.290;2023-10-13T06:45:49;16.80;1.00
429;DHT22;201;48.758;9.290;2023-10-13T06:48:33;17.00;1.00
429;DHT22;201;48.758;9.290;2023-10-13T06:51:00;17.20;1.00
429;DHT22;201;48.758;9.290;2023-10-13T06:53:30;17.40;1.00
429;DHT22;201;48.758;9.290;2023-10-13T06:56:05;17.60;1.00
429;DHT22;201;48.758;9.290;2023-10-13T06:58:31;17.90;1.00
429;DHT22;201;48.758;9.290;2023-10-13T07:00:58;18.10;1.00
429;DHT22;201;48.758;9.290;2023-10-13T07:03:24;18.20;1.00
429;DHT22;201;48.758;9.290;2023-10-13T07:05:50;18.10;1.00
429;DHT22;201;48.758;9.290;2023-10-13T07:08:17;18.10;1.00
429;DHT22;201;48.758;9.290;2023-10-13T07:10:53;18.10;1.00
429;DHT22;201;48.758;9.290;2023-10-13T07:13:30;18.00;1.00
429;DHT22;201;48.758;9.290;2023-10-13T07:15:56;18.00;1.00
429;DHT22;201;48.758;9.290;2023-10-13T07:18:33;18.00;1.00
429;DHT22;201;48.758;9.290;2023-10-13T07:21:09;18.10;1.00
429;DHT22;201;48.758;9.290;2023-10-13T07:23:38;18.20;1.00
429;DHT22;201;48.758;9.290;2023-10-13T07:26:05;18.30;1.00
429;DHT22;201;48.758;9.290;2023-10-13T07:28:34;18.40;1.00
429;DHT22;201;48.758;9.290;2023-10-13T07:31:12;18.60;1.00
429;DHT22;201;48.758;9.290;2023-10-13T07:33:40;18.70;1.00
429;DHT22;201;48.758;9.290;2023-10-13T07:36:08;19.00;1.00
429;DHT22;201;48.758;9.290;2023-10-13T07:38:37;19.10;1.00
429;DHT22;201;48.758;9.290;2023-10-13T07:41:03;19.40;1.00
429;DHT22;201;48.758;9.290;2023-10-13T07:43:35;19.80;1.00
429;DHT22;201;48.758;9.290;2023-10-13T07:46:04;20.00;1.00
429;DHT22;201;48.758;9.290;2023-10-13T07:48:40;20.00;1.00
429;DHT22;201;48.758;9.290;2023-10-13T07:51:07;20.00;1.00
429;DHT22;201;48.758;9.290;2023-10-13T07:53:36;20.00;1.00
429;DHT22;201;48.758;9.290;2023-10-13T07:56:15;19.80;1.00
429;DHT22;201;48.758;9.290;2023-10-13T07:58:44;19.80;1.00
429;DHT22;201;48.758;9.290;2023-10-13T08:01:20;19.70;1.00
429;DHT22;201;48.758;9.290;2023-10-13T08:03:46;19.70;1.00
429;DHT22;201;48.758;9.290;2023-10-13T08:06:16;19.60;1.00
429;DHT22;201;48.758;9.290;2023-10-13T08:08:42;19.60;1.00
429;DHT22;201;48.758;9.290;2023-10-13T08:11:09;19.60;1.00
429;DHT22;201;48.758;9.290;2023-10-13T08:13:57;19.70;1.00
429;DHT22;201;48.758;9.290;2023-10-13T08:16:36;19.80;1.00
429;DHT22;201;48.758;9.290;2023-10-13T08:19:16;19.90;1.00
429;DHT22;201;48.758;9.290;2023-10-13T08:21:47;19.80;1.00
429;DHT22;201;48.758;9.290;2023-10-13T08:24:23;19.80;1.00
429;DHT22;201;48.758;9.290;2023-10-13T08:27:16;19.70;1.00
429;DHT22;201;48.758;9.290;2023-10-13T08:30:01;19.70;1.00
429;DHT22;201;48.758;9.290;2023-10-13T08:32:32;19.80;1.00
429;DHT22;201;48.758;9.290;2023-10-13T08:34:58;20.00;1.00
429;DHT22;201;48.758;9.290;2023-10-13T08:37:31;20.10;1.00
429;DHT22;201;48.758;9.290;2023-10-13T08:40:13;20.30;1.00
429;DHT22;201;48.758;9.290;2023-10-13T08:42:57;20.50;1.00
429;DHT22;201;48.758;9.290;2023-10-13T08:45:28;20.70;1.00
429;DHT22;201;48.758;9.290;2023-10-13T08:47:59;21.40;1.00
429;DHT22;201;48.758;9.290;2023-10-13T08:50:50;23.30;1.00
429;DHT22;201;48.758;9.290;2023-10-13T08:53:24;26.70;1.00
429;DHT22;201;48.758;9.290;2023-10-13T08:58:33;31.10;1.00
429;DHT22;201;48.758;9.290;2023-10-13T09:01:28;32.60;1.00
429;DHT22;201;48.758;9.290;2023-10-13T09:04:18;34.70;1.00
429;DHT22;201;48.758;9.290;2023-10-13T09:06:56;37.00;1.00
429;DHT22;201;48.758;9.290;2023-10-13T09:09:26;38.10;1.00
429;DHT22;201;48.758;9.290;2023-10-13T09:11:54;39.40;1.00
429;DHT22;201;48.758;9.290;2023-10-13T09:14:33;40.20;1.00
429;DHT22;201;48.758;9.290;2023-10-13T09:17:05;41.50;1.00
429;DHT22;201;48.758;9.290;2023-10-13T09:19:51;42.00;1.00
429;DHT22;201;48.758;9.290;2023-10-13T09:22:27;42.40;1.00
429;DHT22;201;48.758;9.290;2023-10-13T09:24:57;42.40;1.00
429;DHT22;201;48.758;9.290;2023-10-13T09:27:27;41.30;1.00
429;DHT22;201;48.758;9.290;2023-10-13T09:30:01;41.40;1.00
429;DHT22;201;48.758;9.290;2023-10-13T09:32:44;40.80;1.00
429;DHT22;201;48.758;9.290;2023-10-13T09:35:18;40.20;1.00
429;DHT22;201;48.758;9.290;2023-10-13T09:37:49;40.40;1.00
429;DHT22;201;48.758;9.290;2023-10-13T09:40:16;40.20;1.00
429;DHT22;201;48.758;9.290;2023-10-13T09:43:11;40.90;1.00
429;DHT22;201;48.758;9.290;2023-10-13T09:45:41;41.30;1.00
429;DHT22;201;48.758;9.290;2023-10-13T09:48:32;40.60;1.00
429;DHT22;201;48.758;9.290;2023-10-13T09:51:00;41.30;1.00
429;DHT22;201;48.758;9.290;2023-10-13T09:53:27;41.30;1.00
429;DHT22;201;48.758;9.290;2023-10-13T09:56:12;42.30;1.00
429;DHT22;201;48.758;9.290;2023-10-13T10:01:22;41.50;1.00
429;DHT22;201;48.758;9.290;2023-10-13T10:04:07;40.70;1.00
429;DHT22;201;48.758;9.290;2023-10-13T10:06:34;40.50;1.00
429;DHT22;201;48.758;9.290;2023-10-13T10:09:11;40.90;1.00
429;DHT22;201;48.758;9.290;2023-10-13T10:17:22;39.10;1.00
429;DHT22;201;48.758;9.290;2023-10-13T10:19:53;37.90;1.00
429;DHT22;201;48.758;9.290;2023-10-13T10:22:28;36.70;1.00
429;DHT22;201;48.758;9.290;2023-10-13T10:25:01;35.30;1.00
429;DHT22;201;48.758;9.290;2023-10-13T10:27:28;34.10;1.00
429;DHT22;201;48.758;9.290;2023-10-13T10:29:55;32.90;1.00
429;DHT22;201;48.758;9.290;2023-10-13T10:32:21;32.10;1.00
429;DHT22;201;48.758;9.290;2023-10-13T10:34:47;31.40;1.00
429;DHT22;201;48.758;9.290;2023-10-13T10:37:12;30.90;1.00
429;DHT22;201;48.758;9.290;2023-10-13T10:39:38;30.60;1.00
429;DHT22;201;48.758;9.290;2023-10-13T10:42:15;30.60;1.00
429;DHT22;201;48.758;9.290;2023-10-13T10:44:42;30.70;1.00
429;DHT22;201;48.758;9.290;2023-10-13T10:47:14;30.60;1.00
429;DHT22;201;48.758;9.290;2023-10-13T10:50:02;30.50;1.00
429;DHT22;201;48.758;9.290;2023-10-13T10:52:45;30.40;1.00
429;DHT22;201;48.758;9.290;2023-10-13T10:55:12;30.40;1.00
429;DHT22;201;48.758;9.290;2023-10-13T10:57:40;30.50;1.00
429;DHT22;201;48.758;9.290;2023-10-13T11:00:29;30.70;1.00
429;DHT22;201;48.758;9.290;2023-10-13T11:03:12;30.60;1.00
429;DHT22;201;48.758;9.290;2023-10-13T11:05:47;30.50;1.00
429;DHT22;201;48.758;9.290;2023-10-13T11:08:23;30.60;1.00
429;DHT22;201;48.758;9.290;2023-10-13T11:10:57;30.70;1.00
429;DHT22;201;48.758;9.290;2023-10-13T11:13:22;30.60;1.00
429;DHT22;201;48.758;9.290;2023-10-13T11:15:48;30.20;1.00
429;DHT22;201;48.758;9.290;2023-10-13T11:18:16;29.90;1.00
429;DHT22;201;48.758;9.290;2023-10-13T11:20:49;29.80;1.00
429;DHT22;201;48.758;9.290;2023-10-13T11:23:21;29.70;1.00
429;DHT22;201;48.758;9.290;2023-10-13T11:25:59;29.50;1.00
429;DHT22;201;48.758;9.290;2023-10-13T11:28:24;29.50;1.00
429;DHT22;201;48.758;9.290;2023-10-13T11:30:57;29.50;1.00
429;DHT22;201;48.758;9.290;2023-10-13T11:33:36;29.50;1.00
429;DHT22;201;48.758;9.290;2023-10-13T11:36:01;29.40;1.00
429;DHT22;201;48.758;9.290;2023-10-13T11:41:07;29.20;1.00
429;DHT22;201;48.758;9.290;2023-10-13T11:43:44;29.20;1.00
429;DHT22;201;48.758;9.290;2023-10-13T11:46:30;29.30;1.00
429;DHT22;201;48.758;9.290;2023-10-13T11:49:05;29.40;1.00
429;DHT22;201;48.758;9.290;2023-10-13T11:51:50;29.40;1.00
429;DHT22;201;48.758;9.290;2023-10-13T11:54:17;29.60;1.00
429;DHT22;201;48.758;9.290;2023-10-13T11:56:44;29.80;1.00
429;DHT22;201;48.758;9.290;2023-10-13T11:59:10;30.00;1.00
429;DHT22;201;48.758;9.290;2023-10-13T12:01:50;30.10;1.00
429;DHT22;201;48.758;9.290;2023-10-13T12:04:35;30.20;1.00
429;DHT22;201;48.758;9.290;2023-10-13T12:07:20;30.20;1.00
429;DHT22;201;48.758;9.290;2023-10-13T12:09:50;30.30;1.00
429;DHT22;201;48.758;9.290;2023-10-13T12:12:23;30.30;1.00
429;DHT22;201;48.758;9.290;2023-10-13T12:14:49;30.30;1.00
429;DHT22;201;48.758;9.290;2023-10-13T12:17:21;30.30;1.00
429;DHT22;201;48.758;9.290;2023-10-13T12:20:06;30.20;1.00
429;DHT22;201;48.758;9.290;2023-10-13T12:22:36;30.20;1.00
429;DHT22;201;48.758;9.290;2023-10-13T12:25:05;30.00;1.00
429;DHT22;201;48.758;9.290;2023-10-13T12:27:50;29.90;1.00
429;DHT22;201;48.758;9.290;2023-10-13T12:30:21;29.90;1.00
429;DHT22;201;48.758;9.290;2023-10-13T12:33:14;29.80;1.00
429;DHT22;201;48.758;9.290;2023-10-13T12:35:42;29.90;1.00
429;DHT22;201;48.758;9.290;2023-10-13T12:38:24;29.90;1.00
429;DHT22;201;48.758;9.290;2023-10-13T12:41:07;29.90;1.00
429;DHT22;201;48.758;9.290;2023-10-13T12:43:51;29.80;1.00
429;DHT22;201;48.758;9.290;2023-10-13T12:46:37;29.70;1.00
429;DHT22;201;48.758;9.290;2023-10-13T12:49:21;29.70;1.00
429;DHT22;201;48.758;9.290;2023-10-13T12:52:05;29.80;1.00
429;DHT22;201;48.758;9.290;2023-10-13T12:54:41;29.70;1.00
429;DHT22;201;48.758;9.290;2023-10-13T12:57:12;29.90;1.00
429;DHT22;201;48.758;9.290;2023-10-13T12:59:38;30.10;1.00
429;DHT22;201;48.758;9.290;2023-10-13T13:02:04;30.20;1.00
429;DHT22;201;48.758;9.290;2023-10-13T13:04:32;30.30;1.00
429;DHT22;201;48.758;9.290;2023-10-13T13:07:02;30.40;1.00
429;DHT22;201;48.758;9.290;2023-10-13T13:09:30;30.30;1.00
429;DHT22;201;48.758;9.290;2023-10-13T13:11:56;30.30;1.00
429;DHT22;201;48.758;9.290;2023-10-13T13:14:23;30.30;1.00
429;DHT22;201;48.758;9.290;2023-10-13T13:16:57;30.20;1.00
429;DHT22;201;48.758;9.290;2023-10-13T13:19:36;30.00;1.00
429;DHT22;201;48.758;9.290;2023-10-13T13:22:08;29.70;1.00
429;DHT22;201;48.758;9.290;2023-10-13T13:24:40;29.40;1.00
429;DHT22;201;48.758;9.290;2023-10-13T13:27:14;29.10;1.00
429;DHT22;201;48.758;9.290;2023-10-13T13:29:43;28.60;1.00
429;DHT22;201;48.758;9.290;2023-10-13T13:32:09;28.20;1.00
429;DHT22;201;48.758;9.290;2023-10-13T13:34:49;28.00;1.00
429;DHT22;201;48.758;9.290;2023-10-13T13:37:30;28.10;1.00
429;DHT22;201;48.758;9.290;2023-10-13T13:39:56;28.40;1.00
429;DHT22;201;48.758;9.290;2023-10-13T13:42:22;28.60;1.00
429;DHT22;201;48.758;9.290;2023-10-13T13:44:48;28.70;1.00
429;DHT22;201;48.758;9.290;2023-10-13T13:47:14;28.90;1.00
429;DHT22;201;48.758;9.290;2023-10-13T13:49:40;28.90;1.00
429;DHT22;201;48.758;9.290;2023-10-13T13:52:11;29.00;1.00
429;DHT22;201;48.758;9.290;2023-10-13T13:54:43;29.00;1.00
429;DHT22;201;48.758;9.290;2023-10-13T13:57:08;29.00;1.00
429;DHT22;201;48.758;9.290;2023-10-13T13:59:34;29.00;1.00
429;DHT22;201;48.758;9.290;2023-10-13T14:02:01;28.90;1.00
429;DHT22;201;48.758;9.290;2023-10-13T14:04:32;28.80;1.00
429;DHT22;201;48.758;9.290;2023-10-13T14:06:57;28.80;1.00
429;DHT22;201;48.758;9.290;2023-10-13T14:09:23;28.90;1.00
429;DHT22;201;48.758;9.290;2023-10-13T14:12:01;28.80;1.00
429;DHT22;201;48.758;9.290;2023-10-13T14:14:44;28.70;1.00
429;DHT22;201;48.758;9.290;2023-10-13T14:17:21;28.60;1.00
429;DHT22;201;48.758;9.290;2023-10-13T14:19:56;28.60;1.00
429;DHT22;201;48.758;9.290;2023-10-13T14:22:23;28.60;1.00
429;DHT22;201;48.758;9.290;2023-10-13T14:24:50;28.50;1.00
429;DHT22;201;48.758;9.290;2023-10-13T14:27:20;28.50;1.00
429;DHT22;201;48.758;9.290;2023-10-13T14:29:48;28.40;1.00
429;DHT22;201;48.758;9.290;2023-10-13T14:32:18;28.40;1.00
429;DHT22;201;48.758;9.290;2023-10-13T14:34:46;28.30;1.00
429;DHT22;201;48.758;9.290;2023-10-13T14:37:13;28.30;1.00
429;DHT22;201;48.758;9.290;2023-10-13T14:39:42;28.20;1.00
429;DHT22;201;48.758;9.290;2023-10-13T14:42:08;28.10;1.00
429;DHT22;201;48.758;9.290;2023-10-13T14:44:34;28.10;1.00
429;DHT22;201;48.758;9.290;2023-10-13T14:47:00;28.00;1.00
429;DHT22;201;48.758;9.290;2023-10-13T14:49:26;28.00;1.00
429;DHT22;201;48.758;9.290;2023-10-13T14:51:52;27.90;1.00
429;DHT22;201;48.758;9.290;2023-10-13T14:54:20;27.80;1.00
429;DHT22;201;48.758;9.290;2023-10-13T14:57:01;27.70;1.00
429;DHT22;201;48.758;9.290;2023-10-13T14:59:27;27.70;1.00
429;DHT22;201;48.758;9.290;2023-10-13T15:01:53;27.60;1.00
429;DHT22;201;48.758;9.290;2023-10-13T15:04:18;27.50;1.00
429;DHT22;201;48.758;9.290;2023-10-13T15:06:49;27.50;1.00
429;DHT22;201;48.758;9.290;2023-10-13T15:09:15;27.40;1.00
429;DHT22;201;48.758;9.290;2023-10-13T15:11:49;27.30;1.00
429;DHT22;201;48.758;9.290;2023-10-13T15:14:18;27.30;1.00
429;DHT22;201;48.758;9.290;2023-10-13T15:16:45;27.20;1.00
429;DHT22;201;48.758;9.290;2023-10-13T15:19:11;27.10;1.00
429;DHT22;201;48.758;9.290;2023-10-13T15:21:37;27.00;1.00
429;DHT22;201;48.758;9.290;2023-10-13T15:24:06;26.90;1.00
429;DHT22;201;48.758;9.290;2023-10-13T15:26:46;26.90;1.00
429;DHT22;201;48.758;9.290;2023-10-13T15:29:17;26.80;1.00
429;DHT22;201;48.758;9.290;2023-10-13T15:31:44;26.80;1.00
429;DHT22;201;48.758;9.290;2023-10-13T15:34:25;26.70;1.00
429;DHT22;201;48.758;9.290;2023-10-13T15:36:55;26.60;1.00
429;DHT22;201;48.758;9.290;2023-10-13T15:39:24;26.40;1.00
429;DHT22;201;48.758;9.290;2023-10-13T15:41:54;26.40;1.00
429;DHT22;201;48.758;9.290;2023-10-13T15:44:23;26.30;1.00
429;DHT22;201;48.758;9.290;2023-10-13T15:46:53;26.20;1.00
429;DHT22;201;48.758;9.290;2023-10-13T15:49:19;26.10;1.00
429;DHT22;201;48.758;9.290;2023-10-13T15:51:44;25.90;1.00
429;DHT22;201;48.758;9.290;2023-10-13T15:54:10;25.80;1.00
429;DHT22;201;48.758;9.290;2023-10-13T15:56:44;25.70;1.00
429;DHT22;201;48.758;9.290;2023-10-13T15:59:10;25.60;1.00
429;DHT22;201;48.758;9.290;2023-10-13T16:01:36;25.50;1.00
429;DHT22;201;48.758;9.290;2023-10-13T16:04:04;25.40;1.00
429;DHT22;201;48.758;9.290;2023-10-13T16:06:40;25.30;1.00
429;DHT22;201;48.758;9.290;2023-10-13T16:09:06;25.30;1.00
429;DHT22;201;48.758;9.290;2023-10-13T16:11:40;25.20;1.00
429;DHT22;201;48.758;9.290;2023-10-13T16:14:06;25.10;1.00
429;DHT22;201;48.758;9.290;2023-10-13T16:16:36;25.00;1.00
429;DHT22;201;48.758;9.290;2023-10-13T16:19:02;24.90;1.00
429;DHT22;201;48.758;9.290;2023-10-13T16:21:30;24.80;1.00
429;DHT22;201;48.758;9.290;2023-10-13T16:23:56;24.70;1.00
429;DHT22;201;48.758;9.290;2023-10-13T16:26:21;24.70;1.00
429;DHT22;201;48.758;9.290;2023-10-13T16:28:50;24.50;1.00
429;DHT22;201;48.758;9.290;2023-10-13T16:31:23;24.40;1.00
429;DHT22;201;48.758;9.290;2023-10-13T16:33:49;24.30;1.00
429;DHT22;201;48.758;9.290;2023-10-13T16:36:15;24.20;1.00
429;DHT22;201;48.758;9.290;2023-10-13T16:38:40;24.10;1.00
429;DHT22;201;48.758;9.290;2023-10-13T16:41:11;24.00;1.00
429;DHT22;201;48.758;9.290;2023-10-13T16:43:38;23.90;1.00
429;DHT22;201;48.758;9.290;2023-10-13T16:46:05;23.80;1.00
429;DHT22;201;48.758;9.290;2023-10-13T16:48:32;23.70;1.00
429;DHT22;201;48.758;9.290;2023-10-13T16:50:59;23.60;1.00
429;DHT22;201;48.758;9.290;2023-10-13T16:53:25;23.50;1.00
429;DHT22;201;48.758;9.290;2023-10-13T16:55:51;23.40;1.00
429;DHT22;201;48.758;9.290;2023-10-13T16:58:17;23.30;1.00
429;DHT22;201;48.758;9.290;2023-10-13T17:00:43;23.20;1.00
429;DHT22;201;48.758;9.290;2023-10-13T17:03:09;23.20;1.00
429;DHT22;201;48.758;9.290;2023-10-13T17:05:46;23.10;1.00
429;DHT22;201;48.758;9.290;2023-10-13T17:08:12;23.00;1.00
429;DHT22;201;48.758;9.290;2023-10-13T17:10:39;23.00;1.00
429;DHT22;201;48.758;9.290;2023-10-13T17:13:05;23.00;1.00
429;DHT22;201;48.758;9.290;2023-10-13T17:15:35;22.90;1.00
429;DHT22;201;48.758;9.290;2023-10-13T17:18:03;22.80;1.00
429;DHT22;201;48.758;9.290;2023-10-13T17:20:36;22.80;1.00
429;DHT22;201;48.758;9.290;2023-10-13T17:23:03;22.70;1.00
429;DHT22;201;48.758;9.290;2023-10-13T17:25:29;22.70;1.00
429;DHT22;201;48.758;9.290;2023-10-13T17:27:55;22.70;1.00
429;DHT22;201;48.758;9.290;2023-10-13T17:30:21;22.70;1.00
429;DHT22;201;48.758;9.290;2023-10-13T17:32:46;22.70;1.00
429;DHT22;201;48.758;9.290;2023-10-13T17:35:12;22.60;1.00
429;DHT22;201;48.758;9.290;2023-10-13T17:37:39;22.60;1.00
429;DHT22;201;48.758;9.290;2023-10-13T17:40:11;22.50;1.00
429;DHT22;201;48.758;9.290;2023-10-13T17:42:45;22.40;1.00